sensor_id;sensor_type;location;lat;lon;timestamp;P1;durP1;ratioP1;P2;durP2;ratioP2
47778;SDS011;33538;48.432;11.350;2022-12-01T00:00:02;35.13;;;12.50;;
47778;SDS011;33538;48.432;11.350;2022-12-01T00:02:29;30.77;;;11.15;;
47778;SDS011;33538;48.432;11.350;2022-12-01T00:04:56;30.73;;;11.00;;
47778;SDS011;33538;48.432;11.350;2022-12-01T00:07:24;32.15;;;12.30;;
47778;SDS011;33538;48.432;11.350;2022-12-01T00:09:51;30.48;;;11.63;;
47778;SDS011;33538;48.432;11.350;2022-12-01T00:12:18;34.25;;;11.60;;
47778;SDS011;33538;48.432;11.350;2022-12-01T00:14:44;30.63;;;11.48;;
47778;SDS011;33538;48.432;11.350;2022-12-01T00:17:11;29.88;;;11.95;;
47778;SDS011;33538;48.432;11.350;2022-12-01T00:19:38;33.50;;;11.80;;
47778;SDS011;33538;48.432;11.350;2022-12-01T00:22:05;41.13;;;13.73;;
47778;SDS011;33538;48.432;11.350;2022-12-01T00:24:33;34.63;;;12.93;;
47778;SDS011;33538;48.432;11.350;2022-12-01T00:27:00;35.47;;;13.38;;
47778;SDS011;33538;48.432;11.350;2022-12-01T00:29:26;36.22;;;12.43;;
47778;SDS011;33538;48.432;11.350;2022-12-01T00:31:53;49.30;;;13.05;;
47778;SDS011;33538;48.432;11.350;2022-12-01T00:34:21;36.40;;;12.25;;
47778;SDS011;33538;48.432;11.350;2022-12-01T00:36:49;34.35;;;12.77;;
47778;SDS011;33538;48.432;11.350;2022-12-01T00:39:15;32.88;;;12.73;;
47778;SDS011;33538;48.432;11.350;2022-12-01T00:41:44;39.55;;;14.18;;
47778;SDS011;33538;48.432;11.350;2022-12-01T00:44:10;36.38;;;12.57;;
47778;SDS011;33538;48.432;11.350;2022-12-01T00:46:37;41.30;;;13.25;;
47778;SDS011;33538;48.432;11.350;2022-12-01T00:49:04;37.10;;;13.30;;
47778;SDS011;33538;48.432;11.350;2022-12-01T00:51:31;38.60;;;14.32;;
47778;SDS011;33538;48.432;11.350;2022-12-01T00:53:58;31.38;;;12.15;;
47778;SDS011;33538;48.432;11.350;2022-12-01T00:56:24;39.55;;;12.43;;
47778;SDS011;33538;48.432;11.350;2022-12-01T00:58:52;45.95;;;12.90;;
47778;SDS011;33538;48.432;11.350;2022-12-01T01:01:19;36.83;;;12.50;;
47778;SDS011;33538;48.432;11.350;2022-12-01T01:03:46;37.58;;;12.77;;
47778;SDS011;33538;48.432;11.350;2022-12-01T01:06:13;33.08;;;11.98;;
47778;SDS011;33538;48.432;11.350;2022-12-01T01:08:40;44.78;;;12.88;;
47778;SDS011;33538;48.432;11.350;2022-12-01T01:11:07;35.58;;;12.30;;
47778;SDS011;33538;48.432;11.350;2022-12-01T01:13:34;35.72;;;12.57;;
47778;SDS011;33538;48.432;11.350;2022-12-01T01:16:03;37.08;;;12.73;;
47778;SDS011;33538;48.432;11.350;2022-12-01T01:18:38;35.92;;;11.82;;
47778;SDS011;33538;48.432;11.350;2022-12-01T01:21:06;34.22;;;12.65;;
47778;SDS011;33538;48.432;11.350;2022-12-01T01:23:35;37.67;;;12.68;;
47778;SDS011;33538;48.432;11.350;2022-12-01T01:26:03;40.78;;;14.50;;
47778;SDS011;33538;48.432;11.350;2022-12-01T01:28:32;45.78;;;14.07;;
47778;SDS011;33538;48.432;11.350;2022-12-01T01:30:59;53.65;;;15.32;;
47778;SDS011;33538;48.432;11.350;2022-12-01T01:33:31;39.72;;;12.80;;
47778;SDS011;33538;48.432;11.350;2022-12-01T01:35:58;37.45;;;12.00;;
47778;SDS011;33538;48.432;11.350;2022-12-01T01:38:26;38.75;;;13.27;;
47778;SDS011;33538;48.432;11.350;2022-12-01T01:40:53;38.08;;;13.55;;
47778;SDS011;33538;48.432;11.350;2022-12-01T01:46:08;39.63;;;12.70;;
47778;SDS011;33538;48.432;11.350;2022-12-01T01:48:36;34.05;;;12.52;;
47778;SDS011;33538;48.432;11.350;2022-12-01T01:51:05;39.83;;;13.55;;
47778;SDS011;33538;48.432;11.350;2022-12-01T01:53:33;37.20;;;11.52;;
47778;SDS011;33538;48.432;11.350;2022-12-01T01:56:00;33.40;;;12.63;;
47778;SDS011;33538;48.432;11.350;2022-12-01T01:58:29;40.45;;;13.07;;
47778;SDS011;33538;48.432;11.350;2022-12-01T02:00:57;45.42;;;14.00;;
47778;SDS011;33538;48.432;11.350;2022-12-01T02:03:25;38.97;;;12.43;;
47778;SDS011;33538;48.432;11.350;2022-12-01T02:05:54;39.53;;;13.93;;
47778;SDS011;33538;48.432;11.350;2022-12-01T02:08:29;36.83;;;12.50;;
47778;SDS011;33538;48.432;11.350;2022-12-01T02:11:03;33.75;;;12.27;;
47778;SDS011;33538;48.432;11.350;2022-12-01T02:13:54;29.63;;;12.35;;
47778;SDS011;33538;48.432;11.350;2022-12-01T02:16:29;33.65;;;13.10;;
47778;SDS011;33538;48.432;11.350;2022-12-01T02:19:09;42.17;;;13.63;;
47778;SDS011;33538;48.432;11.350;2022-12-01T02:21:57;38.78;;;13.25;;
47778;SDS011;33538;48.432;11.350;2022-12-01T02:24:40;38.38;;;13.25;;
47778;SDS011;33538;48.432;11.350;2022-12-01T02:27:24;34.13;;;12.00;;
47778;SDS011;33538;48.432;11.350;2022-12-01T02:30:06;33.42;;;12.40;;
47778;SDS011;33538;48.432;11.350;2022-12-01T02:32:41;31.23;;;12.52;;
47778;SDS011;33538;48.432;11.350;2022-12-01T02:35:15;37.17;;;14.23;;
47778;SDS011;33538;48.432;11.350;2022-12-01T02:37:48;29.80;;;13.07;;
47778;SDS011;33538;48.432;11.350;2022-12-01T02:40:23;37.55;;;12.95;;
47778;SDS011;33538;48.432;11.350;2022-12-01T02:42:55;40.90;;;12.40;;
47778;SDS011;33538;48.432;11.350;2022-12-01T02:45:30;32.50;;;11.73;;
47778;SDS011;33538;48.432;11.350;2022-12-01T02:48:03;31.45;;;11.80;;
47778;SDS011;33538;48.432;11.350;2022-12-01T02:50:34;36.50;;;12.75;;
47778;SDS011;33538;48.432;11.350;2022-12-01T02:53:03;31.92;;;11.15;;
47778;SDS011;33538;48.432;11.350;2022-12-01T02:55:32;36.10;;;12.35;;
47778;SDS011;33538;48.432;11.350;2022-12-01T02:57:59;35.83;;;12.98;;
47778;SDS011;33538;48.432;11.350;2022-12-01T03:00:26;36.78;;;13.57;;
47778;SDS011;33538;48.432;11.350;2022-12-01T03:03:01;29.02;;;11.70;;
47778;SDS011;33538;48.432;11.350;2022-12-01T03:05:43;34.13;;;11.57;;
47778;SDS011;33538;48.432;11.350;2022-12-01T03:08:16;32.40;;;12.33;;
47778;SDS011;33538;48.432;11.350;2022-12-01T03:10:52;36.88;;;12.40;;
47778;SDS011;33538;48.432;11.350;2022-12-01T03:13:22;26.92;;;11.13;;
47778;SDS011;33538;48.432;11.350;2022-12-01T03:16:00;27.63;;;10.80;;
47778;SDS011;33538;48.432;11.350;2022-12-01T03:18:34;30.92;;;11.95;;
47778;SDS011;33538;48.432;11.350;2022-12-01T03:21:04;31.08;;;10.85;;
47778;SDS011;33538;48.432;11.350;2022-12-01T03:23:36;35.90;;;13.60;;
47778;SDS011;33538;48.432;11.350;2022-12-01T03:26:06;25.60;;;11.05;;
47778;SDS011;33538;48.432;11.350;2022-12-01T03:28:37;31.48;;;13.57;;
47778;SDS011;33538;48.432;11.350;2022-12-01T03:31:10;32.28;;;11.23;;
47778;SDS011;33538;48.432;11.350;2022-12-01T03:33:44;32.70;;;10.93;;
47778;SDS011;33538;48.432;11.350;2022-12-01T03:36:15;26.77;;;11.25;;
47778;SDS011;33538;48.432;11.350;2022-12-01T03:38:48;27.08;;;10.93;;
47778;SDS011;33538;48.432;11.350;2022-12-01T03:41:21;35.03;;;12.50;;
47778;SDS011;33538;48.432;11.350;2022-12-01T03:43:54;30.13;;;10.95;;
47778;SDS011;33538;48.432;11.350;2022-12-01T03:46:33;29.48;;;11.27;;
47778;SDS011;33538;48.432;11.350;2022-12-01T03:49:06;28.83;;;10.43;;
47778;SDS011;33538;48.432;11.350;2022-12-01T03:51:35;32.92;;;12.90;;
47778;SDS011;33538;48.432;11.350;2022-12-01T03:54:10;26.60;;;10.80;;
47778;SDS011;33538;48.432;11.350;2022-12-01T03:56:45;28.83;;;11.82;;
47778;SDS011;33538;48.432;11.350;2022-12-01T03:59:15;29.33;;;11.18;;
47778;SDS011;33538;48.432;11.350;2022-12-01T04:01:44;26.05;;;10.07;;
47778;SDS011;33538;48.432;11.350;2022-12-01T04:04:13;30.30;;;11.30;;
47778;SDS011;33538;48.432;11.350;2022-12-01T04:06:42;31.67;;;11.18;;
47778;SDS011;33538;48.432;11.350;2022-12-01T04:09:11;27.80;;;10.27;;
47778;SDS011;33538;48.432;11.350;2022-12-01T04:11:38;27.27;;;9.50;;
47778;SDS011;33538;48.432;11.350;2022-12-01T04:14:05;36.75;;;11.82;;
47778;SDS011;33538;48.432;11.350;2022-12-01T04:16:32;27.65;;;10.85;;
47778;SDS011;33538;48.432;11.350;2022-12-01T04:18:59;32.65;;;12.15;;
47778;SDS011;33538;48.432;11.350;2022-12-01T04:21:27;31.58;;;13.02;;
47778;SDS011;33538;48.432;11.350;2022-12-01T04:23:54;30.65;;;10.38;;
47778;SDS011;33538;48.432;11.350;2022-12-01T04:26:20;30.52;;;11.25;;
47778;SDS011;33538;48.432;11.350;2022-12-01T04:28:47;25.98;;;10.27;;
47778;SDS011;33538;48.432;11.350;2022-12-01T04:31:14;27.27;;;11.85;;
47778;SDS011;33538;48.432;11.350;2022-12-01T04:33:41;28.63;;;11.60;;
47778;SDS011;33538;48.432;11.350;2022-12-01T04:36:08;28.05;;;9.93;;
47778;SDS011;33538;48.432;11.350;2022-12-01T04:38:36;26.58;;;10.68;;
47778;SDS011;33538;48.432;11.350;2022-12-01T04:41:06;30.98;;;10.85;;
47778;SDS011;33538;48.432;11.350;2022-12-01T04:43:34;31.63;;;12.38;;
47778;SDS011;33538;48.432;11.350;2022-12-01T04:46:00;28.88;;;10.40;;
47778;SDS011;33538;48.432;11.350;2022-12-01T04:48:27;28.92;;;11.55;;
47778;SDS011;33538;48.432;11.350;2022-12-01T04:50:54;27.25;;;10.63;;
47778;SDS011;33538;48.432;11.350;2022-12-01T04:53:21;27.23;;;10.57;;
47778;SDS011;33538;48.432;11.350;2022-12-01T04:55:49;25.23;;;10.02;;
47778;SDS011;33538;48.432;11.350;2022-12-01T04:58:16;24.70;;;9.40;;
47778;SDS011;33538;48.432;11.350;2022-12-01T05:00:43;27.83;;;10.88;;
47778;SDS011;33538;48.432;11.350;2022-12-01T05:03:10;21.83;;;9.02;;
47778;SDS011;33538;48.432;11.350;2022-12-01T05:05:40;27.08;;;11.30;;
47778;SDS011;33538;48.432;11.350;2022-12-01T05:08:07;24.52;;;9.57;;
47778;SDS011;33538;48.432;11.350;2022-12-01T05:10:34;29.70;;;10.73;;
47778;SDS011;33538;48.432;11.350;2022-12-01T05:13:02;25.67;;;10.50;;
47778;SDS011;33538;48.432;11.350;2022-12-01T05:15:30;27.15;;;10.00;;
47778;SDS011;33538;48.432;11.350;2022-12-01T05:17:57;21.70;;;9.70;;
47778;SDS011;33538;48.432;11.350;2022-12-01T05:20:24;25.67;;;9.00;;
47778;SDS011;33538;48.432;11.350;2022-12-01T05:22:51;25.35;;;9.10;;
47778;SDS011;33538;48.432;11.350;2022-12-01T05:25:31;25.75;;;9.93;;
47778;SDS011;33538;48.432;11.350;2022-12-01T05:27:58;28.95;;;10.93;;
47778;SDS011;33538;48.432;11.350;2022-12-01T05:30:26;30.85;;;10.70;;
47778;SDS011;33538;48.432;11.350;2022-12-01T05:32:54;28.42;;;9.80;;
47778;SDS011;33538;48.432;11.350;2022-12-01T05:35:21;28.92;;;10.63;;
47778;SDS011;33538;48.432;11.350;2022-12-01T05:37:47;29.88;;;10.65;;
47778;SDS011;33538;48.432;11.350;2022-12-01T05:40:14;29.85;;;10.82;;
47778;SDS011;33538;48.432;11.350;2022-12-01T05:42:41;34.22;;;11.43;;
47778;SDS011;33538;48.432;11.350;2022-12-01T05:45:08;22.42;;;9.88;;
47778;SDS011;33538;48.432;11.350;2022-12-01T05:47:37;35.53;;;11.80;;
47778;SDS011;33538;48.432;11.350;2022-12-01T05:50:04;28.65;;;10.40;;
47778;SDS011;33538;48.432;11.350;2022-12-01T05:52:32;25.00;;;10.45;;
47778;SDS011;33538;48.432;11.350;2022-12-01T05:54:58;27.95;;;11.20;;
47778;SDS011;33538;48.432;11.350;2022-12-01T05:57:25;29.52;;;11.75;;
47778;SDS011;33538;48.432;11.350;2022-12-01T05:59:52;30.13;;;11.65;;
47778;SDS011;33538;48.432;11.350;2022-12-01T06:02:19;28.45;;;10.65;;
47778;SDS011;33538;48.432;11.350;2022-12-01T06:04:47;26.77;;;10.38;;
47778;SDS011;33538;48.432;11.350;2022-12-01T06:07:14;28.58;;;11.10;;
47778;SDS011;33538;48.432;11.350;2022-12-01T06:09:41;27.85;;;11.00;;
47778;SDS011;33538;48.432;11.350;2022-12-01T06:12:07;31.88;;;11.52;;
47778;SDS011;33538;48.432;11.350;2022-12-01T06:14:34;24.17;;;9.45;;
47778;SDS011;33538;48.432;11.350;2022-12-01T06:17:01;27.50;;;10.20;;
47778;SDS011;33538;48.432;11.350;2022-12-01T06:19:28;23.48;;;9.25;;
47778;SDS011;33538;48.432;11.350;2022-12-01T06:21:56;29.45;;;11.10;;
47778;SDS011;33538;48.432;11.350;2022-12-01T06:24:23;27.58;;;10.52;;
47778;SDS011;33538;48.432;11.350;2022-12-01T06:26:50;28.25;;;10.82;;
47778;SDS011;33538;48.432;11.350;2022-12-01T06:29:17;25.48;;;10.63;;
47778;SDS011;33538;48.432;11.350;2022-12-01T06:31:43;30.17;;;11.30;;
47778;SDS011;33538;48.432;11.350;2022-12-01T06:34:10;25.92;;;10.65;;
47778;SDS011;33538;48.432;11.350;2022-12-01T06:36:37;28.58;;;10.77;;
47778;SDS011;33538;48.432;11.350;2022-12-01T06:39:06;28.02;;;9.93;;
47778;SDS011;33538;48.432;11.350;2022-12-01T06:41:33;30.60;;;11.32;;
47778;SDS011;33538;48.432;11.350;2022-12-01T06:44:00;28.88;;;10.90;;
47778;SDS011;33538;48.432;11.350;2022-12-01T06:46:27;27.65;;;10.25;;
47778;SDS011;33538;48.432;11.350;2022-12-01T06:48:54;26.95;;;10.90;;
47778;SDS011;33538;48.432;11.350;2022-12-01T06:51:21;26.98;;;9.60;;
47778;SDS011;33538;48.432;11.350;2022-12-01T06:53:51;25.92;;;10.05;;
47778;SDS011;33538;48.432;11.350;2022-12-01T06:56:19;25.80;;;10.40;;
47778;SDS011;33538;48.432;11.350;2022-12-01T06:58:47;32.83;;;11.55;;
47778;SDS011;33538;48.432;11.350;2022-12-01T07:01:15;28.15;;;10.73;;
47778;SDS011;33538;48.432;11.350;2022-12-01T07:03:42;31.70;;;10.63;;
47778;SDS011;33538;48.432;11.350;2022-12-01T07:06:12;27.42;;;9.52;;
47778;SDS011;33538;48.432;11.350;2022-12-01T07:08:39;28.13;;;10.00;;
47778;SDS011;33538;48.432;11.350;2022-12-01T07:11:06;29.45;;;10.95;;
47778;SDS011;33538;48.432;11.350;2022-12-01T07:13:36;25.48;;;10.50;;
47778;SDS011;33538;48.432;11.350;2022-12-01T07:16:03;28.10;;;11.18;;
47778;SDS011;33538;48.432;11.350;2022-12-01T07:18:31;28.00;;;11.00;;
47778;SDS011;33538;48.432;11.350;2022-12-01T07:20:59;29.85;;;11.73;;
47778;SDS011;33538;48.432;11.350;2022-12-01T07:23:26;27.20;;;11.27;;
47778;SDS011;33538;48.432;11.350;2022-12-01T07:25:56;26.27;;;9.50;;
47778;SDS011;33538;48.432;11.350;2022-12-01T07:28:24;30.13;;;11.48;;
47778;SDS011;33538;48.432;11.350;2022-12-01T07:30:52;29.75;;;10.82;;
47778;SDS011;33538;48.432;11.350;2022-12-01T07:33:19;27.33;;;10.32;;
47778;SDS011;33538;48.432;11.350;2022-12-01T07:35:45;26.80;;;10.13;;
47778;SDS011;33538;48.432;11.350;2022-12-01T07:38:12;30.40;;;11.80;;
47778;SDS011;33538;48.432;11.350;2022-12-01T07:40:47;22.77;;;9.70;;
47778;SDS011;33538;48.432;11.350;2022-12-01T07:43:13;32.85;;;11.45;;
47778;SDS011;33538;48.432;11.350;2022-12-01T07:45:40;31.77;;;11.13;;
47778;SDS011;33538;48.432;11.350;2022-12-01T07:48:08;28.77;;;10.32;;
47778;SDS011;33538;48.432;11.350;2022-12-01T07:50:35;28.80;;;10.80;;
47778;SDS011;33538;48.432;11.350;2022-12-01T07:53:02;25.17;;;10.73;;
47778;SDS011;33538;48.432;11.350;2022-12-01T07:55:29;30.85;;;11.18;;
47778;SDS011;33538;48.432;11.350;2022-12-01T07:57:57;25.75;;;9.60;;
47778;SDS011;33538;48.432;11.350;2022-12-01T08:00:24;35.47;;;12.23;;
47778;SDS011;33538;48.432;11.350;2022-12-01T08:02:51;37.38;;;11.82;;
47778;SDS011;33538;48.432;11.350;2022-12-01T08:05:19;28.00;;;11.60;;
47778;SDS011;33538;48.432;11.350;2022-12-01T08:07:46;36.40;;;11.57;;
47778;SDS011;33538;48.432;11.350;2022-12-01T08:10:13;26.88;;;9.75;;
47778;SDS011;33538;48.432;11.350;2022-12-01T08:12:40;31.55;;;10.65;;
47778;SDS011;33538;48.432;11.350;2022-12-01T08:15:07;31.00;;;10.30;;
47778;SDS011;33538;48.432;11.350;2022-12-01T08:17:34;27.17;;;10.52;;
47778;SDS011;33538;48.432;11.350;2022-12-01T08:20:01;23.73;;;10.18;;
47778;SDS011;33538;48.432;11.350;2022-12-01T08:22:29;30.75;;;11.63;;
47778;SDS011;33538;48.432;11.350;2022-12-01T08:24:56;27.73;;;11.07;;
47778;SDS011;33538;48.432;11.350;2022-12-01T08:27:22;28.08;;;10.48;;
47778;SDS011;33538;48.432;11.350;2022-12-01T08:29:49;30.92;;;11.38;;
47778;SDS011;33538;48.432;11.350;2022-12-01T08:32:16;29.48;;;11.98;;
47778;SDS011;33538;48.432;11.350;2022-12-01T08:34:43;26.00;;;9.82;;
47778;SDS011;33538;48.432;11.350;2022-12-01T08:37:18;27.33;;;11.30;;
47778;SDS011;33538;48.432;11.350;2022-12-01T08:39:46;25.95;;;10.32;;
47778;SDS011;33538;48.432;11.350;2022-12-01T08:42:13;30.00;;;10.68;;
47778;SDS011;33538;48.432;11.350;2022-12-01T08:44:40;25.58;;;10.30;;
47778;SDS011;33538;48.432;11.350;2022-12-01T08:47:07;33.17;;;10.88;;
47778;SDS011;33538;48.432;11.350;2022-12-01T08:49:35;34.90;;;11.88;;
47778;SDS011;33538;48.432;11.350;2022-12-01T08:52:02;28.52;;;11.35;;
47778;SDS011;33538;48.432;11.350;2022-12-01T08:54:29;26.90;;;10.38;;
47778;SDS011;33538;48.432;11.350;2022-12-01T08:56:57;28.92;;;10.80;;
47778;SDS011;33538;48.432;11.350;2022-12-01T08:59:23;25.40;;;9.95;;
47778;SDS011;33538;48.432;11.350;2022-12-01T09:01:50;29.17;;;11.38;;
47778;SDS011;33538;48.432;11.350;2022-12-01T09:04:18;25.48;;;10.27;;
47778;SDS011;33538;48.432;11.350;2022-12-01T09:06:46;26.73;;;10.05;;
47778;SDS011;33538;48.432;11.350;2022-12-01T09:09:14;31.17;;;11.35;;
47778;SDS011;33538;48.432;11.350;2022-12-01T09:11:43;31.23;;;10.40;;
47778;SDS011;33538;48.432;11.350;2022-12-01T09:14:12;27.20;;;11.32;;
47778;SDS011;33538;48.432;11.350;2022-12-01T09:16:40;23.92;;;10.25;;
47778;SDS011;33538;48.432;11.350;2022-12-01T09:19:08;28.35;;;10.80;;
47778;SDS011;33538;48.432;11.350;2022-12-01T09:21:38;23.05;;;10.07;;
47778;SDS011;33538;48.432;11.350;2022-12-01T09:24:05;23.95;;;9.50;;
47778;SDS011;33538;48.432;11.350;2022-12-01T09:26:33;29.85;;;10.48;;
47778;SDS011;33538;48.432;11.350;2022-12-01T09:29:04;26.23;;;10.35;;
47778;SDS011;33538;48.432;11.350;2022-12-01T09:31:34;23.17;;;10.38;;
47778;SDS011;33538;48.432;11.350;2022-12-01T09:34:02;21.10;;;9.38;;
47778;SDS011;33538;48.432;11.350;2022-12-01T09:36:31;27.65;;;10.35;;
47778;SDS011;33538;48.432;11.350;2022-12-01T09:38:59;24.92;;;10.50;;
47778;SDS011;33538;48.432;11.350;2022-12-01T09:41:27;24.08;;;9.10;;
47778;SDS011;33538;48.432;11.350;2022-12-01T09:43:58;24.13;;;9.73;;
47778;SDS011;33538;48.432;11.350;2022-12-01T09:46:29;29.70;;;10.35;;
47778;SDS011;33538;48.432;11.350;2022-12-01T09:49:02;21.95;;;9.38;;
47778;SDS011;33538;48.432;11.350;2022-12-01T09:51:28;23.73;;;9.05;;
47778;SDS011;33538;48.432;11.350;2022-12-01T09:53:58;25.05;;;10.13;;
47778;SDS011;33538;48.432;11.350;2022-12-01T09:56:26;24.15;;;9.85;;
47778;SDS011;33538;48.432;11.350;2022-12-01T09:58:55;22.40;;;9.70;;
47778;SDS011;33538;48.432;11.350;2022-12-01T10:01:25;23.17;;;9.45;;
47778;SDS011;33538;48.432;11.350;2022-12-01T10:03:58;27.43;;;10.53;;
47778;SDS011;33538;48.432;11.350;2022-12-01T10:06:34;28.13;;;10.43;;
47778;SDS011;33538;48.432;11.350;2022-12-01T10:09:06;26.15;;;10.07;;
47778;SDS011;33538;48.432;11.350;2022-12-01T10:11:44;23.77;;;9.10;;
47778;SDS011;33538;48.432;11.350;2022-12-01T10:14:13;27.73;;;9.10;;
47778;SDS011;33538;48.432;11.350;2022-12-01T10:16:47;22.90;;;9.70;;
47778;SDS011;33538;48.432;11.350;2022-12-01T10:19:21;27.40;;;9.48;;
47778;SDS011;33538;48.432;11.350;2022-12-01T10:21:59;22.60;;;10.73;;
47778;SDS011;33538;48.432;11.350;2022-12-01T10:24:42;25.85;;;9.60;;
47778;SDS011;33538;48.432;11.350;2022-12-01T10:27:23;24.98;;;10.45;;
47778;SDS011;33538;48.432;11.350;2022-12-01T10:30:00;26.95;;;10.90;;
47778;SDS011;33538;48.432;11.350;2022-12-01T10:32:44;27.55;;;10.48;;
47778;SDS011;33538;48.432;11.350;2022-12-01T10:35:19;23.75;;;9.63;;
47778;SDS011;33538;48.432;11.350;2022-12-01T10:37:50;25.70;;;10.48;;
47778;SDS011;33538;48.432;11.350;2022-12-01T10:40:20;21.45;;;9.52;;
47778;SDS011;33538;48.432;11.350;2022-12-01T10:42:48;25.00;;;9.38;;
47778;SDS011;33538;48.432;11.350;2022-12-01T10:45:17;26.13;;;9.75;;
47778;SDS011;33538;48.432;11.350;2022-12-01T10:48:06;29.27;;;11.38;;
47778;SDS011;33538;48.432;11.350;2022-12-01T10:50:35;30.48;;;11.45;;
47778;SDS011;33538;48.432;11.350;2022-12-01T10:53:04;28.23;;;10.35;;
47778;SDS011;33538;48.432;11.350;2022-12-01T10:55:31;30.02;;;11.75;;
47778;SDS011;33538;48.432;11.350;2022-12-01T10:58:02;27.55;;;10.60;;
47778;SDS011;33538;48.432;11.350;2022-12-01T11:00:36;29.52;;;11.35;;
47778;SDS011;33538;48.432;11.350;2022-12-01T11:03:25;28.88;;;10.50;;
47778;SDS011;33538;48.432;11.350;2022-12-01T11:05:54;24.45;;;11.15;;
47778;SDS011;33538;48.432;11.350;2022-12-01T11:08:28;28.75;;;10.18;;
47778;SDS011;33538;48.432;11.350;2022-12-01T11:10:58;27.13;;;10.25;;
47778;SDS011;33538;48.432;11.350;2022-12-01T11:13:26;22.90;;;10.07;;
47778;SDS011;33538;48.432;11.350;2022-12-01T11:15:56;24.60;;;11.23;;
47778;SDS011;33538;48.432;11.350;2022-12-01T11:18:27;21.85;;;9.52;;
47778;SDS011;33538;48.432;11.350;2022-12-01T11:21:03;27.45;;;9.98;;
47778;SDS011;33538;48.432;11.350;2022-12-01T11:23:35;29.20;;;11.00;;
47778;SDS011;33538;48.432;11.350;2022-12-01T11:26:13;25.48;;;10.40;;
47778;SDS011;33538;48.432;11.350;2022-12-01T11:28:49;35.42;;;12.32;;
47778;SDS011;33538;48.432;11.350;2022-12-01T11:31:18;27.80;;;11.40;;
47778;SDS011;33538;48.432;11.350;2022-12-01T11:33:47;33.00;;;12.13;;
47778;SDS011;33538;48.432;11.350;2022-12-01T11:36:24;35.38;;;12.38;;
47778;SDS011;33538;48.432;11.350;2022-12-01T11:38:55;26.52;;;10.20;;
47778;SDS011;33538;48.432;11.350;2022-12-01T11:41:27;29.40;;;11.00;;
47778;SDS011;33538;48.432;11.350;2022-12-01T11:43:56;21.88;;;10.43;;
47778;SDS011;33538;48.432;11.350;2022-12-01T11:46:28;27.42;;;10.50;;
47778;SDS011;33538;48.432;11.350;2022-12-01T11:48:58;34.72;;;12.35;;
47778;SDS011;33538;48.432;11.350;2022-12-01T11:51:27;29.17;;;10.85;;
47778;SDS011;33538;48.432;11.350;2022-12-01T11:54:05;20.08;;;9.80;;
47778;SDS011;33538;48.432;11.350;2022-12-01T11:56:38;24.02;;;9.75;;
47778;SDS011;33538;48.432;11.350;2022-12-01T11:59:08;26.15;;;9.90;;
47778;SDS011;33538;48.432;11.350;2022-12-01T12:01:39;25.10;;;10.50;;
47778;SDS011;33538;48.432;11.350;2022-12-01T12:04:22;26.25;;;9.90;;
47778;SDS011;33538;48.432;11.350;2022-12-01T12:07:06;24.67;;;9.95;;
47778;SDS011;33538;48.432;11.350;2022-12-01T12:09:52;27.10;;;9.23;;
47778;SDS011;33538;48.432;11.350;2022-12-01T12:12:32;27.70;;;10.20;;
47778;SDS011;33538;48.432;11.350;2022-12-01T12:15:10;27.58;;;10.00;;
47778;SDS011;33538;48.432;11.350;2022-12-01T12:17:48;22.52;;;9.32;;
47778;SDS011;33538;48.432;11.350;2022-12-01T12:20:39;25.80;;;9.15;;
47778;SDS011;33538;48.432;11.350;2022-12-01T12:23:19;26.73;;;10.07;;
47778;SDS011;33538;48.432;11.350;2022-12-01T12:25:58;25.80;;;10.07;;
47778;SDS011;33538;48.432;11.350;2022-12-01T12:28:37;22.63;;;10.00;;
47778;SDS011;33538;48.432;11.350;2022-12-01T12:31:20;24.30;;;10.05;;
47778;SDS011;33538;48.432;11.350;2022-12-01T12:33:59;28.70;;;10.88;;
47778;SDS011;33538;48.432;11.350;2022-12-01T12:36:41;27.27;;;10.10;;
47778;SDS011;33538;48.432;11.350;2022-12-01T12:39:21;25.52;;;10.43;;
47778;SDS011;33538;48.432;11.350;2022-12-01T12:42:13;24.95;;;10.15;;
47778;SDS011;33538;48.432;11.350;2022-12-01T12:44:52;23.77;;;9.02;;
47778;SDS011;33538;48.432;11.350;2022-12-01T12:47:36;24.52;;;10.05;;
47778;SDS011;33538;48.432;11.350;2022-12-01T12:50:13;30.30;;;10.07;;
47778;SDS011;33538;48.432;11.350;2022-12-01T12:52:47;27.33;;;9.68;;
47778;SDS011;33538;48.432;11.350;2022-12-01T12:55:18;30.08;;;10.43;;
47778;SDS011;33538;48.432;11.350;2022-12-01T12:57:51;26.58;;;9.57;;
47778;SDS011;33538;48.432;11.350;2022-12-01T13:00:21;30.10;;;11.32;;
47778;SDS011;33538;48.432;11.350;2022-12-01T13:02:51;25.02;;;9.18;;
47778;SDS011;33538;48.432;11.350;2022-12-01T13:05:22;25.83;;;9.55;;
47778;SDS011;33538;48.432;11.350;2022-12-01T13:07:54;26.98;;;10.27;;
47778;SDS011;33538;48.432;11.350;2022-12-01T13:10:27;31.40;;;9.93;;
47778;SDS011;33538;48.432;11.350;2022-12-01T13:13:10;29.70;;;10.00;;
47778;SDS011;33538;48.432;11.350;2022-12-01T13:15:42;25.88;;;10.32;;
47778;SDS011;33538;48.432;11.350;2022-12-01T13:18:11;24.05;;;9.38;;
47778;SDS011;33538;48.432;11.350;2022-12-01T13:20:50;25.58;;;9.23;;
47778;SDS011;33538;48.432;11.350;2022-12-01T13:23:19;26.90;;;10.80;;
47778;SDS011;33538;48.432;11.350;2022-12-01T13:25:47;32.15;;;11.43;;
47778;SDS011;33538;48.432;11.350;2022-12-01T13:28:20;29.48;;;12.13;;
47778;SDS011;33538;48.432;11.350;2022-12-01T13:30:56;30.02;;;10.45;;
47778;SDS011;33538;48.432;11.350;2022-12-01T13:33:25;26.40;;;11.13;;
47778;SDS011;33538;48.432;11.350;2022-12-01T13:35:53;27.25;;;10.75;;
47778;SDS011;33538;48.432;11.350;2022-12-01T13:38:41;25.13;;;11.57;;
47778;SDS011;33538;48.432;11.350;2022-12-01T13:41:08;34.05;;;12.02;;
47778;SDS011;33538;48.432;11.350;2022-12-01T13:43:44;24.27;;;11.35;;
47778;SDS011;33538;48.432;11.350;2022-12-01T13:46:31;24.92;;;10.30;;
47778;SDS011;33538;48.432;11.350;2022-12-01T13:49:30;28.83;;;11.43;;
47778;SDS011;33538;48.432;11.350;2022-12-01T13:52:25;33.33;;;11.02;;
47778;SDS011;33538;48.432;11.350;2022-12-01T13:55:01;29.45;;;10.82;;
47778;SDS011;33538;48.432;11.350;2022-12-01T14:00:49;24.48;;;10.90;;
47778;SDS011;33538;48.432;11.350;2022-12-01T14:03:36;25.60;;;11.35;;
47778;SDS011;33538;48.432;11.350;2022-12-01T14:06:06;29.23;;;10.70;;
47778;SDS011;33538;48.432;11.350;2022-12-01T14:08:35;27.38;;;10.40;;
47778;SDS011;33538;48.432;11.350;2022-12-01T14:11:16;23.88;;;10.10;;
47778;SDS011;33538;48.432;11.350;2022-12-01T14:13:48;29.50;;;10.52;;
47778;SDS011;33538;48.432;11.350;2022-12-01T14:16:20;25.77;;;9.52;;
47778;SDS011;33538;48.432;11.350;2022-12-01T14:18:51;27.83;;;10.70;;
47778;SDS011;33538;48.432;11.350;2022-12-01T15:12:50;30.90;;;9.52;;
47778;SDS011;33538;48.432;11.350;2022-12-01T15:15:18;35.85;;;11.27;;
47778;SDS011;33538;48.432;11.350;2022-12-01T15:17:49;32.53;;;11.40;;
47778;SDS011;33538;48.432;11.350;2022-12-01T15:20:25;28.95;;;9.75;;
47778;SDS011;33538;48.432;11.350;2022-12-01T15:22:53;25.67;;;10.75;;
47778;SDS011;33538;48.432;11.350;2022-12-01T15:25:20;29.60;;;10.90;;
47778;SDS011;33538;48.432;11.350;2022-12-01T15:28:01;28.45;;;11.15;;